Time;durP1;ratioP1;P1;durP2;ratioP2;P2;SDS_P1;SDS_P2;PMS_P1;PMS_P2;Temp;Humidity;BMP_temperature;BMP_pressure;BME280_temperature;BME280_humidity;BME280_pressure;Samples;Min_cycle;Max_cycle;Signal;HPM_P1;HPM_P2
2022/11/02 00:01:24;;;;;;;39.53;33.10;;;14.90;99.90;;;;;;4995514;28;20038;-82
2022/11/02 00:03:50;;;;;;;38.33;33.15;;;14.90;99.90;;;;;;5014815;28;20033;-82
2022/11/02 00:06:16;;;;;;;48.55;33.97;;;15.00;99.90;;;;;;4996497;28;20051;-82
2022/11/02 00:08:42;;;;;;;42.60;35.78;;;15.00;99.90;;;;;;4997429;28;20092;-82
2022/11/02 00:11:08;;;;;;;50.95;34.97;;;15.00;99.90;;;;;;5013775;28;20052;-82
2022/11/02 00:13:34;;;;;;;40.10;36.03;;;15.10;99.90;;;;;;5014415;28;20034;-83
2022/11/02 00:16:04;;;;;;;41.03;34.58;;;15.00;99.90;;;;;;5011051;28;20040;-82
2022/11/02 00:18:31;;;;;;;42.30;29.10;;;15.10;99.90;;;;;;4997827;28;20033;-82
2022/11/02 00:20:57;;;;;;;40.33;28.15;;;15.10;99.90;;;;;;5011811;28;20112;-82
2022/11/02 00:23:23;;;;;;;43.63;29.70;;;15.10;99.90;;;;;;4997266;28;20040;-83
2022/11/02 00:25:49;;;;;;;40.25;27.48;;;15.10;99.90;;;;;;4997204;28;20037;-82
2022/11/02 00:28:16;;;;;;;45.78;26.73;;;15.00;99.90;;;;;;5012696;28;20025;-82
2022/11/02 00:30:42;;;;;;;35.30;24.20;;;15.00;99.90;;;;;;4996130;28;20041;-82
2022/11/02 00:33:08;;;;;;;38.35;26.00;;;15.00;99.90;;;;;;4989341;28;20053;-82
2022/11/02 00:35:34;;;;;;;47.35;26.65;;;15.00;99.90;;;;;;4993037;28;20426;-82
2022/11/02 00:38:01;;;;;;;44.58;27.00;;;14.90;99.90;;;;;;5008270;28;20049;-82
2022/11/02 00:40:27;;;;;;;41.55;30.95;;;14.90;99.90;;;;;;4997401;28;20033;-82
2022/11/02 00:42:53;;;;;;;39.50;27.98;;;14.80;99.90;;;;;;5011847;28;20034;-82
2022/11/02 00:45:21;;;;;;;41.03;26.50;;;14.90;99.90;;;;;;5013451;28;20390;-82
2022/11/02 00:47:48;;;;;;;41.70;27.33;;;14.80;99.90;;;;;;4997946;28;20037;-82
2022/11/02 00:50:14;;;;;;;40.05;26.90;;;14.80;99.90;;;;;;4987809;28;20055;-82
2022/11/02 00:52:41;;;;;;;37.75;27.15;;;14.80;99.90;;;;;;5000404;28;20510;-82
2022/11/02 00:55:08;;;;;;;40.65;26.40;;;14.80;99.90;;;;;;5028611;28;20131;-82
2022/11/02 00:57:34;;;;;;;33.35;24.20;;;14.80;99.90;;;;;;4995142;28;20510;-82
2022/11/02 01:00:00;;;;;;;44.63;26.77;;;14.80;99.90;;;;;;4980490;28;20034;-82
2022/11/02 01:02:26;;;;;;;47.65;27.25;;;14.70;99.90;;;;;;4995464;28;20065;-81
2022/11/02 01:04:53;;;;;;;34.88;25.50;;;14.70;99.90;;;;;;4997056;28;20045;-82
2022/11/02 01:07:19;;;;;;;35.28;25.33;;;14.70;99.90;;;;;;5011169;28;20053;-82
2022/11/02 01:09:45;;;;;;;43.95;24.02;;;14.70;99.90;;;;;;4996579;28;20033;-82
2022/11/02 01:12:11;;;;;;;34.47;25.35;;;14.70;99.90;;;;;;5030660;28;20045;-82
2022/11/02 01:14:37;;;;;;;42.45;25.15;;;14.70;99.90;;;;;;5009955;28;20089;-82
2022/11/02 01:17:03;;;;;;;38.92;25.38;;;14.70;99.90;;;;;;5012573;28;20034;-82
2022/11/02 01:19:29;;;;;;;43.75;24.42;;;14.60;99.90;;;;;;4995222;28;20478;-84
2022/11/02 01:21:55;;;;;;;30.15;24.42;;;14.60;99.90;;;;;;4985789;28;20041;-82
2022/11/02 01:24:21;;;;;;;33.95;25.33;;;14.50;99.90;;;;;;4997014;28;20383;-81
2022/11/02 01:26:51;;;;;;;37.22;25.17;;;14.50;99.90;;;;;;4973039;28;20046;-81
2022/11/02 01:29:17;;;;;;;39.63;27.95;;;14.40;99.90;;;;;;4976398;28;20410;-82
2022/11/02 01:31:43;;;;;;;43.20;25.10;;;14.40;99.90;;;;;;4977193;28;20042;-83
2022/11/02 01:34:10;;;;;;;35.80;27.90;;;14.30;99.90;;;;;;5004222;28;20470;-82
2022/11/02 01:36:36;;;;;;;35.05;27.15;;;14.30;99.90;;;;;;5013186;28;20025;-82
2022/11/02 01:39:02;;;;;;;36.47;25.92;;;14.30;99.90;;;;;;4976510;28;20042;-82
2022/11/02 01:41:29;;;;;;;40.40;28.42;;;14.20;99.90;;;;;;5009785;28;20462;-82
2022/11/02 01:43:57;;;;;;;40.53;28.90;;;14.30;99.90;;;;;;4983832;28;20045;-82
2022/11/02 01:46:40;;;;;;;34.42;24.23;;;14.30;99.90;;;;;;5016577;28;20049;-82
2022/11/02 01:49:14;;;;;;;36.15;23.75;;;14.30;99.90;;;;;;4998980;28;20041;-82
2022/11/02 01:51:48;;;;;;;37.97;25.30;;;14.30;99.90;;;;;;5004176;28;20406;-82
2022/11/02 01:54:25;;;;;;;33.85;28.75;;;14.30;99.90;;;;;;4981198;28;20040;-82
2022/11/02 01:56:55;;;;;;;37.97;28.10;;;14.20;99.90;;;;;;5015314;28;20382;-82
2022/11/02 01:59:26;;;;;;;40.00;27.50;;;14.20;99.90;;;;;;5015024;28;20033;-81
2022/11/02 02:01:53;;;;;;;40.65;28.65;;;14.20;99.90;;;;;;4995829;28;20513;-82
2022/11/02 02:04:19;;;;;;;41.47;25.67;;;14.20;99.90;;;;;;5013598;28;20034;-83
2022/11/02 02:06:45;;;;;;;38.90;28.05;;;14.10;99.90;;;;;;4999426;28;20064;-82
2022/11/02 02:09:12;;;;;;;40.05;24.90;;;14.10;99.90;;;;;;5014215;28;20052;-82
2022/11/02 02:11:38;;;;;;;46.75;27.90;;;14.10;99.90;;;;;;4998594;28;20398;-81
2022/11/02 02:14:14;;;;;;;31.60;26.27;;;14.10;99.90;;;;;;4996173;28;20042;-82
2022/11/02 02:17:21;;;;;;;37.83;24.90;;;14.10;99.90;;;;;;5032676;28;20034;-82
2022/11/02 02:19:47;;;;;;;38.90;22.33;;;14.10;99.90;;;;;;4968040;28;20034;-82
2022/11/02 02:22:39;;;;;;;33.42;22.73;;;14.00;99.90;;;;;;4970114;28;20046;-82
2022/11/02 02:25:05;;;;;;;;;;;14.00;99.90;;;;;;4931979;28;20050;-82
2022/11/02 02:28:01;;;;;;;33.90;22.33;;;14.00;99.90;;;;;;4971444;28;19988;-82
2022/11/02 02:30:27;;;;;;;37.55;23.25;;;13.90;99.90;;;;;;4963444;28;20035;-83
2022/11/02 02:33:01;;;;;;;42.88;23.98;;;13.90;99.90;;;;;;4939479;29;20047;-82
2022/11/02 02:35:41;;;;;;;41.97;23.35;;;13.80;99.90;;;;;;4951674;28;20034;-82
2022/11/02 02:38:29;;;;;;;30.88;23.65;;;13.70;99.90;;;;;;4954608;28;20069;-81
2022/11/02 02:41:10;;;;;;;33.60;21.85;;;13.70;99.90;;;;;;4954940;28;20029;-82
2022/11/02 02:43:40;;;;;;;37.55;24.05;;;13.60;99.90;;;;;;4910366;29;20043;-82
2022/11/02 02:46:14;;;;;;;39.63;23.20;;;13.50;99.90;;;;;;4937248;28;20054;-82
2022/11/02 02:48:41;;;;;;;33.13;22.70;;;13.50;99.90;;;;;;4955116;28;20046;-82
2022/11/02 02:51:10;;;;;;;34.28;22.17;;;13.40;99.90;;;;;;4950868;28;1183253;-82
2022/11/02 02:53:44;;;;;;;35.30;24.15;;;13.40;99.90;;;;;;4981661;28;20053;-82
2022/11/02 02:56:10;;;;;;;36.85;26.08;;;13.40;99.90;;;;;;4994115;28;20042;-82
2022/11/02 02:58:43;;;;;;;41.72;22.52;;;13.40;99.90;;;;;;4995475;28;20136;-82
2022/11/02 03:01:11;;;;;;;41.28;27.77;;;13.40;99.90;;;;;;4988936;28;20033;-82
2022/11/02 03:03:37;;;;;;;37.38;29.52;;;13.40;99.90;;;;;;4988244;28;20082;-83
2022/11/02 03:06:05;;;;;;;39.50;27.35;;;13.40;99.90;;;;;;5011786;28;20485;-82
2022/11/02 03:08:31;;;;;;;32.95;23.65;;;13.30;99.90;;;;;;4994196;28;20049;-83
2022/11/02 03:11:04;;;;;;;34.60;24.30;;;13.20;99.90;;;;;;4979465;28;20037;-83
2022/11/02 03:13:39;;;;;;;31.50;22.63;;;13.20;99.90;;;;;;5010562;28;20033;-83
2022/11/02 03:16:29;;;;;;;39.97;23.88;;;13.20;99.90;;;;;;5031642;28;20029;-82
2022/11/02 03:19:23;;;;;;;37.00;23.75;;;13.20;99.90;;;;;;5029454;28;20033;-83
2022/11/02 03:22:17;;;;;;;34.03;26.35;;;13.20;99.90;;;;;;5017092;28;20042;-82
2022/11/02 03:25:07;;;;;;;35.10;26.25;;;13.20;99.90;;;;;;5007963;28;20046;-82
2022/11/02 03:27:39;;;;;;;39.80;26.17;;;13.10;99.90;;;;;;5013710;28;20382;-82
2022/11/02 03:30:13;;;;;;;32.78;20.42;;;13.10;99.90;;;;;;4995276;28;20653;-82
2022/11/02 03:32:41;;;;;;;40.08;21.73;;;13.10;99.90;;;;;;5013311;28;20045;-82
2022/11/02 03:35:14;;;;;;;38.45;22.15;;;13.10;99.90;;;;;;4996704;28;20037;-82
2022/11/02 03:37:43;;;;;;;34.47;23.02;;;13.00;99.90;;;;;;4996357;28;20044;-82
2022/11/02 03:40:12;;;;;;;39.42;27.00;;;13.00;99.90;;;;;;5011328;28;20494;-81
2022/11/02 03:42:38;;;;;;;39.53;29.38;;;13.00;99.90;;;;;;5013149;28;20025;-83
2022/11/02 03:45:29;;;;;;;57.90;49.13;;;13.10;99.90;;;;;;4995802;28;20037;-80
2022/11/02 03:47:59;;;;;;;84.60;71.93;;;13.10;99.90;;;;;;4996031;28;20037;-80
2022/11/02 03:50:26;;;;;;;39.03;30.02;;;13.10;99.90;;;;;;4992022;28;20053;-80
2022/11/02 03:53:05;;;;;;;38.83;24.27;;;13.00;99.90;;;;;;4999362;28;20045;-81
2022/11/02 03:55:36;;;;;;;34.70;27.48;;;12.90;99.90;;;;;;4998954;28;20029;-81
2022/11/02 03:58:02;;;;;;;39.00;31.33;;;12.80;99.90;;;;;;5014311;28;20029;-81
2022/11/02 04:00:31;;;;;;;40.30;26.38;;;12.70;99.90;;;;;;5013088;28;20353;-80
2022/11/02 04:02:58;;;;;;;35.75;23.60;;;12.70;99.90;;;;;;4983010;28;20029;-81
2022/11/02 04:05:34;;;;;;;40.97;21.45;;;12.60;99.90;;;;;;4998497;28;20029;-82
2022/11/02 04:16:14;;;;;;;41.40;27.00;;;12.70;99.90;;;;;;5018317;28;20044;-81
2022/11/02 04:21:25;;;;;;;37.05;28.17;;;12.70;99.90;;;;;;5015705;28;20045;-80
2022/11/02 04:26:36;;;;;;;47.38;37.28;;;12.50;99.90;;;;;;5012693;28;20041;-85
2022/11/02 04:29:03;;;;;;;41.13;28.08;;;12.40;99.90;;;;;;5009141;28;20029;-81
2022/11/02 04:31:29;;;;;;;39.67;29.42;;;12.40;99.90;;;;;;4992554;28;20050;-83
2022/11/02 04:33:57;;;;;;;55.20;38.75;;;12.40;99.90;;;;;;4993115;28;20048;-83
2022/11/02 04:36:23;;;;;;;49.47;33.95;;;12.40;99.90;;;;;;5003117;28;20521;-82
2022/11/02 04:38:49;;;;;;;37.13;25.05;;;12.30;99.90;;;;;;5009695;28;20052;-83
2022/11/02 04:44:01;;;;;;;42.20;29.92;;;12.40;99.90;;;;;;5009433;28;20040;-84
2022/11/02 04:46:34;;;;;;;51.80;30.50;;;12.40;99.90;;;;;;5013431;28;20409;-84
2022/11/02 04:49:00;;;;;;;46.67;31.73;;;12.40;99.90;;;;;;4981408;28;20062;-85
2022/11/02 04:51:27;;;;;;;51.47;33.35;;;12.50;99.90;;;;;;4996303;28;20516;-83
2022/11/02 04:53:53;;;;;;;58.03;35.50;;;12.50;99.90;;;;;;5010621;28;20060;-84
2022/11/02 04:56:20;;;;;;;59.92;37.08;;;12.40;99.90;;;;;;4981387;28;20394;-84
2022/11/02 04:58:53;;;;;;;43.97;27.92;;;12.40;99.90;;;;;;4997454;28;20033;-84
2022/11/02 05:01:19;;;;;;;40.85;26.45;;;12.40;99.90;;;;;;5013182;28;20052;-85
2022/11/02 05:03:47;;;;;;;38.47;24.88;;;12.40;99.90;;;;;;4993919;28;20045;-82
2022/11/02 05:06:14;;;;;;;42.83;26.80;;;12.50;99.90;;;;;;4992975;28;20041;-82
2022/11/02 05:08:40;;;;;;;32.53;21.80;;;12.60;99.90;;;;;;4981210;28;20045;-81
2022/11/02 05:11:06;;;;;;;44.70;27.98;;;12.50;99.90;;;;;;4981407;28;20049;-82
2022/11/02 05:13:32;;;;;;;29.35;22.30;;;12.50;99.90;;;;;;4980581;28;20064;-82
2022/11/02 05:15:58;;;;;;;33.03;21.65;;;12.50;99.90;;;;;;4992693;28;20033;-83
2022/11/02 05:18:25;;;;;;;37.38;23.10;;;12.50;99.90;;;;;;5015001;28;20042;-83
2022/11/02 05:20:53;;;;;;;36.60;22.67;;;12.60;99.90;;;;;;5016412;28;20033;-83
2022/11/02 05:23:19;;;;;;;33.28;21.55;;;12.60;99.90;;;;;;4996893;28;20042;-83
2022/11/02 05:26:05;;;;;;;34.08;22.30;;;12.60;99.90;;;;;;4966126;28;20049;-82
2022/11/02 05:28:32;;;;;;;35.22;22.98;;;12.60;99.90;;;;;;5003000;28;20046;-83
2022/11/02 05:31:01;;;;;;;33.00;21.13;;;12.60;99.90;;;;;;4997870;28;20030;-83
2022/11/02 05:33:29;;;;;;;35.53;22.58;;;12.60;99.90;;;;;;5015300;28;20037;-83
2022/11/02 05:35:56;;;;;;;29.52;21.70;;;12.60;99.90;;;;;;5017239;28;20427;-83
2022/11/02 05:38:23;;;;;;;42.10;23.15;;;12.60;99.90;;;;;;5000375;28;20038;-84
2022/11/02 05:40:56;;;;;;;35.97;24.17;;;12.60;99.90;;;;;;5017727;28;20033;-84
2022/11/02 05:43:22;;;;;;;39.03;22.85;;;12.60;99.90;;;;;;4985061;28;20407;-85
2022/11/02 05:45:59;;;;;;;37.83;24.08;;;12.50;99.90;;;;;;5000806;28;20026;-86
2022/11/02 05:48:25;;;;;;;34.00;22.77;;;12.50;99.90;;;;;;4984819;28;20049;-84
2022/11/02 05:50:56;;;;;;;34.80;22.20;;;12.50;99.90;;;;;;5017341;28;20635;-84
2022/11/02 05:53:22;;;;;;;32.88;21.25;;;12.40;99.90;;;;;;4984929;28;20054;-84
2022/11/02 05:55:48;;;;;;;37.45;21.70;;;12.40;99.90;;;;;;4976429;28;20029;-84
2022/11/02 05:58:14;;;;;;;22.73;20.42;;;12.40;99.90;;;;;;4982932;28;20045;-82
2022/11/02 06:00:40;;;;;;;29.10;21.48;;;12.40;99.90;;;;;;4980253;28;20483;-82
2022/11/02 06:03:07;;;;;;;37.25;19.77;;;12.40;99.90;;;;;;4999629;28;20037;-81
2022/11/02 06:05:33;;;;;;;39.50;19.75;;;12.30;99.90;;;;;;4982424;28;20405;-80
2022/11/02 06:07:59;;;;;;;27.25;20.33;;;12.30;99.90;;;;;;5000625;28;20063;-81
2022/11/02 06:10:27;;;;;;;27.25;20.27;;;12.30;99.90;;;;;;4996907;28;20509;-83
2022/11/02 06:12:56;;;;;;;29.35;20.98;;;12.30;99.90;;;;;;4977076;28;20057;-83
2022/11/02 06:15:23;;;;;;;31.83;17.27;;;12.30;99.90;;;;;;4980398;28;20038;-85
2022/11/02 06:17:50;;;;;;;27.25;19.65;;;12.30;99.90;;;;;;4989600;28;20038;-85
2022/11/02 06:20:16;;;;;;;27.80;19.38;;;12.20;99.90;;;;;;5016235;28;20390;-84
2022/11/02 06:22:42;;;;;;;32.42;18.13;;;12.20;99.90;;;;;;4980723;28;20041;-82
2022/11/02 06:25:09;;;;;;;29.40;17.85;;;12.10;99.90;;;;;;5000242;28;20029;-81
2022/11/02 06:27:35;;;;;;;30.55;18.95;;;12.00;99.90;;;;;;4985979;28;20045;-91
2022/11/02 06:30:01;;;;;;;20.27;17.88;;;12.00;99.90;;;;;;5001014;28;20052;-92
2022/11/02 06:32:27;;;;;;;24.75;18.60;;;12.10;99.90;;;;;;5000269;28;20045;-86
2022/11/02 06:34:54;;;;;;;28.88;20.67;;;12.00;99.90;;;;;;5005463;28;20033;-93
2022/11/02 06:37:21;;;;;;;23.20;19.08;;;12.00;99.90;;;;;;4998614;28;20053;-94
2022/11/02 06:39:47;;;;;;;18.80;16.77;;;12.00;99.90;;;;;;5008685;28;20037;-89
2022/11/02 06:42:13;;;;;;;20.60;16.90;;;12.00;99.90;;;;;;4973563;28;20041;-85
2022/11/02 06:44:40;;;;;;;27.52;16.67;;;12.00;99.90;;;;;;5007353;28;20037;-88
2022/11/02 06:47:06;;;;;;;27.70;17.13;;;11.90;99.90;;;;;;5013360;28;20033;-89
2022/11/02 06:49:32;;;;;;;25.85;19.27;;;11.80;99.90;;;;;;4998986;28;20049;-88
2022/11/02 06:51:58;;;;;;;26.27;23.73;;;11.80;99.90;;;;;;5015421;28;20072;-86
2022/11/02 06:54:24;;;;;;;26.10;20.42;;;11.80;99.90;;;;;;4999690;28;20040;-88
2022/11/02 06:56:50;;;;;;;26.75;20.55;;;11.90;99.90;;;;;;4981120;28;20053;-90
2022/11/02 06:59:16;;;;;;;22.52;19.58;;;12.10;99.90;;;;;;4985779;28;20041;-88
2022/11/02 07:01:42;;;;;;;26.83;20.70;;;12.20;99.90;;;;;;5015753;28;20041;-89
2022/11/02 07:04:08;;;;;;;37.42;25.77;;;12.30;99.90;;;;;;4999566;28;20041;-84
2022/11/02 07:06:35;;;;;;;27.17;21.23;;;12.30;99.90;;;;;;4998110;28;20041;-84
2022/11/02 07:09:01;;;;;;;28.48;20.05;;;12.20;99.90;;;;;;4998572;28;20482;-81
2022/11/02 07:11:27;;;;;;;28.55;24.58;;;12.20;99.90;;;;;;5015372;28;20064;-81
2022/11/02 07:13:53;;;;;;;33.25;23.83;;;12.10;99.90;;;;;;5014167;28;20045;-80
2022/11/02 07:16:19;;;;;;;24.55;22.30;;;12.30;99.90;;;;;;5016115;28;20045;-91
2022/11/02 07:18:45;;;;;;;31.15;23.83;;;12.40;99.90;;;;;;4999351;28;20042;-82
2022/11/02 07:21:11;;;;;;;31.38;22.20;;;12.50;99.90;;;;;;5014762;28;20040;-82
2022/11/02 07:23:37;;;;;;;24.05;19.00;;;12.50;99.90;;;;;;5015682;28;20056;-82
2022/11/02 07:26:04;;;;;;;20.30;18.23;;;12.40;99.90;;;;;;4999070;28;20036;-82
2022/11/02 07:28:30;;;;;;;27.20;18.85;;;12.30;99.90;;;;;;4999483;28;20037;-82
2022/11/02 07:30:56;;;;;;;27.08;19.08;;;12.30;99.90;;;;;;4995863;28;20034;-84
2022/11/02 07:33:22;;;;;;;26.00;18.92;;;12.30;99.90;;;;;;4984259;28;20046;-84
2022/11/02 07:35:48;;;;;;;20.65;18.77;;;12.40;99.90;;;;;;4999122;28;20044;-84
2022/11/02 07:38:14;;;;;;;23.52;21.25;;;12.30;99.90;;;;;;5015566;28;20037;-84
2022/11/02 07:40:40;;;;;;;22.23;20.05;;;12.20;99.90;;;;;;5015854;28;20025;-82
2022/11/02 07:43:06;;;;;;;22.40;20.30;;;11.90;99.90;;;;;;4998824;28;20038;-84
2022/11/02 07:45:33;;;;;;;26.33;20.50;;;11.80;99.90;;;;;;4998873;28;20029;-85
2022/11/02 07:47:59;;;;;;;21.30;19.23;;;11.70;99.90;;;;;;4998901;28;20048;-84
2022/11/02 07:50:25;;;;;;;29.05;18.67;;;11.60;99.90;;;;;;5015107;28;20033;-86
2022/11/02 07:52:53;;;;;;;21.77;19.40;;;11.60;99.90;;;;;;4999054;28;20037;-85
2022/11/02 07:55:23;;;;;;;28.42;18.48;;;11.70;99.90;;;;;;4999273;28;20466;-85
2022/11/02 07:57:56;;;;;;;21.15;18.65;;;11.80;99.90;;;;;;4999184;28;20029;-85
2022/11/02 08:00:26;;;;;;;25.52;18.75;;;11.70;99.90;;;;;;5032292;28;20395;-85
2022/11/02 08:02:56;;;;;;;21.75;19.23;;;11.70;99.90;;;;;;4998484;28;20033;-85
2022/11/02 08:05:22;;;;;;;28.45;18.40;;;11.70;99.90;;;;;;5015274;28;20044;-83
2022/11/02 08:07:58;;;;;;;25.85;19.35;;;11.80;99.90;;;;;;4998697;28;20038;-84
2022/11/02 08:10:24;;;;;;;22.20;18.50;;;12.00;99.90;;;;;;4999492;28;20033;-85
2022/11/02 08:12:50;;;;;;;29.67;19.45;;;12.00;99.90;;;;;;4982100;28;20474;-83
2022/11/02 08:15:17;;;;;;;31.63;19.70;;;12.00;99.90;;;;;;4998258;28;20129;-84
2022/11/02 08:17:43;;;;;;;30.80;19.77;;;12.20;99.90;;;;;;4982312;28;20413;-85
2022/11/02 08:20:09;;;;;;;25.20;20.38;;;12.30;99.90;;;;;;5014984;28;20036;-83
2022/11/02 08:22:39;;;;;;;29.70;25.10;;;12.30;99.90;;;;;;4994438;28;20435;-83
2022/11/02 08:25:05;;;;;;;25.65;20.05;;;12.60;99.90;;;;;;4998526;28;20364;-84
2022/11/02 08:27:32;;;;;;;32.83;20.20;;;12.80;99.90;;;;;;5014666;28;20048;-84
2022/11/02 08:29:58;;;;;;;25.67;20.55;;;13.10;99.90;;;;;;4998374;28;20410;-84
2022/11/02 08:32:24;;;;;;;21.45;18.60;;;13.50;99.90;;;;;;4997502;28;20053;-83
2022/11/02 08:34:50;;;;;;;22.63;18.70;;;13.60;99.90;;;;;;5032282;28;20037;-84
2022/11/02 08:37:16;;;;;;;26.10;18.73;;;13.90;99.90;;;;;;5014428;28;20036;-84
2022/11/02 08:39:42;;;;;;;23.13;18.63;;;13.90;99.90;;;;;;4997752;28;20033;-83
2022/11/02 08:42:08;;;;;;;24.88;20.38;;;13.90;99.90;;;;;;4998279;28;20394;-84
2022/11/02 08:44:34;;;;;;;26.38;21.15;;;13.90;99.90;;;;;;5014812;28;20033;-84
2022/11/02 08:47:00;;;;;;;25.13;20.08;;;13.90;99.90;;;;;;5014195;28;20041;-84
2022/11/02 08:49:26;;;;;;;24.95;22.40;;;14.00;99.90;;;;;;5014016;28;20042;-84
2022/11/02 08:51:52;;;;;;;27.70;22.27;;;14.00;99.90;;;;;;5014017;28;20057;-84
2022/11/02 08:54:18;;;;;;;27.98;22.77;;;14.00;99.90;;;;;;4981088;28;20049;-84
2022/11/02 08:56:45;;;;;;;25.17;21.20;;;14.10;99.90;;;;;;4981925;28;20042;-84
2022/11/02 08:59:11;;;;;;;31.20;21.67;;;14.10;99.90;;;;;;4998162;28;20387;-84
2022/11/02 09:01:37;;;;;;;22.75;20.38;;;14.20;99.90;;;;;;5014067;28;20034;-84
2022/11/02 09:04:04;;;;;;;29.02;20.10;;;14.20;99.90;;;;;;4998138;28;20025;-84
2022/11/02 09:06:30;;;;;;;29.05;20.73;;;14.30;99.90;;;;;;5031917;28;20355;-84
2022/11/02 09:08:56;;;;;;;29.40;20.80;;;14.30;99.90;;;;;;4997958;28;20017;-84
2022/11/02 09:11:22;;;;;;;37.42;23.00;;;14.40;99.90;;;;;;5014177;28;20068;-85
2022/11/02 09:13:48;;;;;;;30.25;24.58;;;14.40;99.90;;;;;;4997692;28;20050;-84
2022/11/02 09:16:14;;;;;;;30.38;25.17;;;14.30;99.90;;;;;;4980537;28;20038;-84
2022/11/02 09:18:40;;;;;;;39.13;29.08;;;14.40;99.90;;;;;;4997156;28;20045;-83
2022/11/02 09:21:06;;;;;;;39.50;29.65;;;14.50;99.90;;;;;;4997656;28;20032;-84
2022/11/02 09:23:32;;;;;;;37.80;30.23;;;14.50;99.90;;;;;;4997949;28;20037;-84
2022/11/02 09:25:59;;;;;;;40.33;31.23;;;14.60;99.90;;;;;;4998084;28;20025;-84
2022/11/02 09:28:25;;;;;;;37.80;30.73;;;14.70;99.90;;;;;;5031729;28;20033;-84
2022/11/02 09:30:51;;;;;;;44.30;31.58;;;14.80;99.90;;;;;;4997263;28;20025;-85
2022/11/02 09:33:17;;;;;;;29.98;26.83;;;14.90;99.90;;;;;;5031678;28;20416;-84
2022/11/02 09:35:45;;;;;;;34.30;30.60;;;15.00;99.90;;;;;;5013920;28;20033;-84
2022/11/02 09:38:11;;;;;;;34.55;28.30;;;15.00;99.90;;;;;;4997077;28;20034;-84
2022/11/02 09:40:50;;;;;;;39.05;28.83;;;15.00;99.90;;;;;;5013694;28;20053;-84
2022/11/02 09:43:51;;;;;;;31.42;26.52;;;15.10;99.90;;;;;;5014049;28;20025;-84
2022/11/02 09:46:20;;;;;;;27.30;23.02;;;15.20;99.90;;;;;;4984096;28;20053;-84
2022/11/02 09:48:49;;;;;;;27.85;22.48;;;15.20;99.90;;;;;;5030963;28;20037;-84
2022/11/02 09:51:42;;;;;;;30.02;21.13;;;15.30;99.90;;;;;;5013812;28;20053;-84
2022/11/02 09:54:12;;;;;;;29.35;20.58;;;15.30;99.90;;;;;;4932093;29;20051;-84
2022/11/02 09:56:39;;;;;;;33.70;19.73;;;15.30;99.90;;;;;;4931800;29;20039;-84
2022/11/02 09:59:15;;;;;;;27.20;19.25;;;15.40;99.70;;;;;;4900456;29;20043;-84
2022/11/02 10:02:11;;;;;;;28.63;19.63;;;15.40;99.90;;;;;;4916958;29;20035;-84
2022/11/02 10:04:41;;;;;;;27.58;17.83;;;15.50;99.70;;;;;;4876173;29;20045;-84
2022/11/02 10:07:22;;;;;;;26.83;20.38;;;15.50;99.20;;;;;;4879088;29;20061;-84
2022/11/02 10:10:02;;;;;;;31.63;19.00;;;15.50;99.40;;;;;;4878757;29;20051;-84
2022/11/02 10:12:58;;;;;;;32.45;20.58;;;15.60;98.80;;;;;;4879074;29;20032;-84
2022/11/02 10:15:35;;;;;;;23.70;18.45;;;15.70;99.10;;;;;;4878437;29;20048;-84
2022/11/02 10:18:01;;;;;;;25.20;22.50;;;15.80;98.90;;;;;;4848456;29;20616;-84
2022/11/02 10:20:32;;;;;;;27.40;22.00;;;15.80;98.90;;;;;;4862941;29;20426;-84
2022/11/02 10:23:02;;;;;;;29.33;18.35;;;15.80;98.80;;;;;;4847792;29;20482;-85
2022/11/02 10:25:28;;;;;;;28.52;19.15;;;15.80;98.10;;;;;;4863725;29;20052;-84
2022/11/02 10:28:20;;;;;;;21.38;19.15;;;15.80;98.00;;;;;;4878494;29;20045;-84
2022/11/02 10:30:46;;;;;;;26.33;19.33;;;15.90;98.50;;;;;;4883735;28;20024;-84
2022/11/02 10:33:14;;;;;;;21.83;19.00;;;15.90;98.60;;;;;;4937678;29;20437;-84
2022/11/02 10:36:05;;;;;;;27.23;20.63;;;16.00;98.60;;;;;;4954352;29;20031;-84
2022/11/02 10:38:43;;;;;;;;;;;16.10;98.40;;;;;;4954803;29;20039;-84
2022/11/02 10:41:21;;;;;;;22.48;18.23;;;16.10;97.60;;;;;;4973232;28;19905;-84
2022/11/02 10:44:23;;;;;;;28.17;19.08;;;16.10;97.70;;;;;;5034747;28;20025;-84
2022/11/02 10:47:28;;;;;;;30.30;20.02;;;16.10;97.40;;;;;;5003529;28;20045;-84
2022/11/02 10:50:36;;;;;;;34.55;20.08;;;16.20;97.90;;;;;;4961966;28;20038;-84
2022/11/02 10:53:02;;;;;;;20.40;17.85;;;16.20;97.10;;;;;;4957770;28;20547;-84
2022/11/02 10:55:39;;;;;;;27.17;18.15;;;16.20;96.70;;;;;;4941181;28;20515;-84
2022/11/02 10:58:05;;;;;;;26.10;17.52;;;16.20;96.90;;;;;;4926794;28;20039;-84
2022/11/02 11:00:33;;;;;;;24.88;21.45;;;16.30;97.10;;;;;;4940570;28;20037;-84
2022/11/02 11:03:08;;;;;;;23.98;18.48;;;16.30;97.50;;;;;;4941121;28;20045;-84
2022/11/02 11:05:55;;;;;;;24.52;20.60;;;16.40;97.30;;;;;;4973301;28;20528;-83
2022/11/02 11:08:30;;;;;;;24.58;20.58;;;16.50;97.00;;;;;;4942873;28;20035;-84
2022/11/02 11:11:12;;;;;;;26.05;20.15;;;16.60;96.50;;;;;;4940937;28;20536;-84
2022/11/02 11:13:39;;;;;;;26.67;20.25;;;16.60;95.50;;;;;;4941389;28;20051;-84
2022/11/02 11:16:05;;;;;;;22.45;20.17;;;16.60;95.40;;;;;;4922371;28;20038;-84
2022/11/02 11:18:31;;;;;;;27.13;19.80;;;16.70;94.80;;;;;;4924031;28;20053;-85
2022/11/02 11:20:58;;;;;;;29.60;20.35;;;16.70;94.90;;;;;;4959552;28;20037;-84
2022/11/02 11:23:24;;;;;;;24.55;22.10;;;16.70;95.10;;;;;;4999258;28;20041;-84
2022/11/02 11:25:56;;;;;;;22.73;20.42;;;16.80;95.30;;;;;;4999117;28;20026;-85
2022/11/02 11:28:36;;;;;;;25.95;19.40;;;16.80;95.30;;;;;;5015340;28;20057;-84
2022/11/02 11:31:05;;;;;;;22.98;20.58;;;16.90;94.80;;;;;;4983778;28;20030;-84
2022/11/02 11:33:32;;;;;;;23.35;17.20;;;16.90;94.80;;;;;;5033007;28;20041;-85
2022/11/02 11:35:58;;;;;;;23.35;18.77;;;17.00;94.70;;;;;;5015471;28;20022;-84
2022/11/02 11:38:26;;;;;;;22.95;19.20;;;17.00;94.50;;;;;;5015470;28;20037;-84
2022/11/02 11:40:54;;;;;;;26.40;21.35;;;17.00;94.80;;;;;;5015296;28;20025;-84
2022/11/02 11:43:23;;;;;;;29.42;21.02;;;17.00;94.40;;;;;;5015487;28;20033;-84
2022/11/02 11:46:07;;;;;;;29.00;21.15;;;17.10;94.60;;;;;;5014134;28;20045;-84
2022/11/02 11:48:41;;;;;;;24.30;20.17;;;17.10;94.80;;;;;;5015544;28;20378;-84
2022/11/02 11:51:36;;;;;;;25.08;22.58;;;17.20;94.70;;;;;;5014849;28;20057;-85
2022/11/02 11:54:28;;;;;;;23.73;21.48;;;17.20;94.20;;;;;;5000255;28;20087;-84
2022/11/02 11:56:58;;;;;;;23.42;20.90;;;17.30;94.00;;;;;;5032758;28;20045;-84
2022/11/02 11:59:54;;;;;;;22.23;20.07;;;17.30;94.40;;;;;;5032240;28;20021;-84
2022/11/02 12:02:21;;;;;;;23.42;20.85;;;17.30;94.50;;;;;;5017629;28;20781;-85
2022/11/02 12:04:47;;;;;;;24.50;22.30;;;17.40;93.50;;;;;;4998811;28;20048;-84
2022/11/02 12:07:40;;;;;;;26.40;23.60;;;17.50;93.70;;;;;;4982007;28;20041;-84
2022/11/02 12:10:30;;;;;;;25.17;22.50;;;17.50;93.60;;;;;;5009328;28;20041;-85
2022/11/02 12:13:02;;;;;;;23.10;20.77;;;17.50;93.50;;;;;;4995592;28;20033;-84
2022/11/02 12:15:56;;;;;;;28.83;26.02;;;17.60;93.20;;;;;;5023927;28;20478;-85
2022/11/02 12:18:42;;;;;;;24.95;22.50;;;17.60;93.20;;;;;;5032374;28;20017;-84
2022/11/02 12:21:24;;;;;;;25.33;22.98;;;17.60;93.60;;;;;;5031954;28;20042;-85
2022/11/02 12:24:16;;;;;;;25.40;23.08;;;17.60;93.30;;;;;;4999768;28;20053;-85
2022/11/02 12:27:08;;;;;;;24.33;21.88;;;17.70;93.40;;;;;;5014573;28;20036;-84
2022/11/02 12:30:04;;;;;;;27.73;21.92;;;17.80;93.50;;;;;;4999907;28;20037;-85
2022/11/02 12:33:07;;;;;;;25.33;22.77;;;17.80;93.60;;;;;;4996996;28;20034;-84
2022/11/02 12:35:38;;;;;;;23.33;20.88;;;17.90;93.40;;;;;;4995112;28;20042;-84
2022/11/02 12:38:10;;;;;;;25.38;23.25;;;17.90;93.20;;;;;;5012064;28;20391;-84
2022/11/02 12:40:45;;;;;;;26.90;24.15;;;18.00;93.80;;;;;;5020514;28;20029;-84
2022/11/02 12:43:41;;;;;;;24.65;22.05;;;18.10;93.30;;;;;;5013377;28;20033;-84
2022/11/02 12:46:34;;;;;;;24.85;21.88;;;18.20;92.90;;;;;;5015821;28;20030;-84
2022/11/02 12:49:56;;;;;;;26.30;22.63;;;18.20;93.00;;;;;;5014350;28;20045;-84
2022/11/02 12:52:28;;;;;;;25.73;23.08;;;18.20;92.80;;;;;;4876021;29;20380;-84
2022/11/02 12:54:58;;;;;;;27.50;24.33;;;18.10;92.10;;;;;;4875849;29;20045;-83
2022/11/02 12:57:27;;;;;;;26.98;24.20;;;18.10;92.40;;;;;;4859474;29;20411;-84
2022/11/02 12:59:57;;;;;;;26.33;23.27;;;18.20;92.60;;;;;;4875662;29;20049;-84
2022/11/02 13:02:25;;;;;;;27.37;23.73;;;18.10;92.50;;;;;;4875504;29;20057;-84
2022/11/02 13:05:11;;;;;;;26.38;23.67;;;18.00;92.60;;;;;;4875784;29;20041;-84